Time;durP1;ratioP1;P1;durP2;ratioP2;P2;SDS_P1;SDS_P2;PMS_P1;PMS_P2;Temp;Humidity;BMP_temperature;BMP_pressure;BME280_temperature;BME280_humidity;BME280_pressure;Samples;Min_cycle;Max_cycle;Signal;HPM_P1;HPM_P2
2023/10/06 00:01:32;;;;;;;5.43;2.85;;;;;;;15.20;71.60;100637.78;5014354;28;20081;-91
2023/10/06 00:04:06;;;;;;;4.20;2.55;;;;;;;15.19;71.55;100638.69;5013233;28;20089;-90
2023/10/06 00:06:37;;;;;;;7.50;2.25;;;;;;;15.20;71.71;100637.78;5013966;28;20096;-89
2023/10/06 00:09:06;;;;;;;6.50;2.38;;;;;;;15.22;72.12;100638.63;5005471;28;20521;-89
2023/10/06 00:11:34;;;;;;;4.47;2.63;;;;;;;15.20;71.92;100635.19;5011684;28;20136;-90
2023/10/06 00:14:01;;;;;;;4.65;2.58;;;;;;;15.25;72.02;100641.19;5000746;28;20073;-90
2023/10/06 00:16:38;;;;;;;5.10;3.00;;;;;;;15.25;72.13;100643.81;4985823;28;20092;-90
2023/10/06 00:19:25;;;;;;;3.33;2.95;;;;;;;15.24;71.46;100645.56;4998228;28;20054;-88
2023/10/06 00:22:09;;;;;;;4.22;2.72;;;;;;;15.25;71.71;100646.41;4990065;28;20608;-90
2023/10/06 00:24:37;;;;;;;3.50;2.17;;;;;;;15.20;72.10;100636.03;5001478;28;20699;-89
2023/10/06 00:27:10;;;;;;;5.35;2.92;;;;;;;15.24;72.39;100647.31;5003927;28;20053;-90
2023/10/06 00:29:38;;;;;;;5.68;2.60;;;;;;;15.25;72.26;100649.03;4994088;28;20065;-93
2023/10/06 00:32:21;;;;;;;6.55;2.88;;;;;;;15.27;71.66;100652.50;4996150;28;20055;-89
2023/10/06 00:34:49;;;;;;;6.50;3.28;;;;;;;15.28;71.75;100649.00;5001654;28;20043;-90
2023/10/06 00:37:22;;;;;;;5.05;3.33;;;;;;;15.27;71.89;100648.13;4991984;28;20042;-89
2023/10/06 00:39:50;;;;;;;3.53;1.60;;;;;;;15.29;72.44;100655.94;4989644;28;20525;-90
2023/10/06 00:42:19;;;;;;;6.68;4.07;;;;;;;15.29;72.43;100651.59;5008056;28;20490;-87
2023/10/06 00:44:47;;;;;;;4.88;2.08;;;;;;;15.29;71.44;100650.72;4995151;28;20053;-89
2023/10/06 00:47:15;;;;;;;6.82;4.25;;;;;;;15.27;72.37;100652.50;4998094;28;20046;-90
2023/10/06 00:49:44;;;;;;;5.53;2.90;;;;;;;15.24;72.20;100652.53;4988710;28;20050;-91
2023/10/06 00:52:15;;;;;;;4.57;3.10;;;;;;;15.27;71.83;100642.06;4995553;28;20069;-90
2023/10/06 00:54:46;;;;;;;6.97;3.10;;;;;;;15.27;72.04;100634.22;4997175;28;20522;-89
2023/10/06 00:57:18;;;;;;;9.00;3.30;;;;;;;15.26;72.05;100643.78;5000404;28;20561;-92
2023/10/06 00:59:46;;;;;;;5.20;2.15;;;;;;;15.27;72.19;100642.06;4996829;28;20402;-92
2023/10/06 01:02:15;;;;;;;5.43;2.83;;;;;;;15.27;71.77;100636.84;4994585;28;20047;-90
2023/10/06 01:04:45;;;;;;;4.75;2.13;;;;;;;15.26;72.47;100640.31;4994625;28;20391;-89
2023/10/06 01:07:13;;;;;;;8.10;2.75;;;;;;;15.24;72.67;100632.53;4994039;28;20054;-87
2023/10/06 01:09:56;;;;;;;3.85;2.95;;;;;;;15.22;72.11;100633.41;4994709;28;20068;-88
2023/10/06 01:12:26;;;;;;;6.82;2.67;;;;;;;15.25;72.63;100625.53;4993694;28;20101;-90
2023/10/06 01:17:44;;;;;;;8.25;3.28;;;;;;;15.24;72.68;100610.78;4991933;28;20069;-90
2023/10/06 01:20:26;;;;;;;4.90;1.20;;;;;;;15.23;72.44;100619.50;4991013;28;20638;-86
2023/10/06 01:22:56;;;;;;;5.20;2.60;;;;;;;15.20;72.73;100609.09;4992755;28;20046;-86
2023/10/06 01:25:24;;;;;;;5.80;2.92;;;;;;;15.21;72.51;100616.03;4994788;28;20741;-89
2023/10/06 01:27:51;;;;;;;5.20;2.13;;;;;;;15.19;72.48;100608.22;5002268;28;20057;-91
2023/10/06 01:30:19;;;;;;;8.18;2.63;;;;;;;15.20;73.02;100614.31;5005274;28;20050;-90
2023/10/06 01:32:50;;;;;;;4.78;2.72;;;;;;;15.22;72.73;100617.75;4998837;28;20062;-88
2023/10/06 01:35:23;;;;;;;6.75;2.83;;;;;;;15.20;72.62;100598.66;4994543;28;20593;-90
2023/10/06 01:37:56;;;;;;;4.38;2.63;;;;;;;15.19;72.68;100597.78;4984441;28;20139;-91
2023/10/06 01:42:59;;;;;;;7.47;2.70;;;;;;;15.50;72.75;100596.50;5016033;28;20427;-49
2023/10/06 01:45:28;;;;;;;6.68;1.70;;;;;;;15.31;73.25;100601.97;5000938;28;20109;-50
2023/10/06 01:47:57;;;;;;;6.75;2.13;;;;;;;15.27;73.64;100595.09;5003502;28;20054;-48
2023/10/06 01:50:26;;;;;;;4.00;1.98;;;;;;;15.25;73.11;100592.50;5005609;28;20042;-50
2023/10/06 01:52:55;;;;;;;3.75;1.88;;;;;;;15.24;73.32;100596.00;5002297;28;20050;-51
2023/10/06 01:55:24;;;;;;;5.55;1.20;;;;;;;15.22;73.07;100599.47;5001487;28;20596;-49
2023/10/06 01:57:51;;;;;;;4.45;2.25;;;;;;;15.20;73.52;100603.88;5002234;28;20077;-48
2023/10/06 02:00:31;;;;;;;6.40;1.88;;;;;;;15.20;73.18;100596.88;5004558;28;20623;-49
2023/10/06 02:02:58;;;;;;;2.92;1.52;;;;;;;15.19;72.90;100592.56;5001033;28;20057;-50
2023/10/06 02:05:25;;;;;;;3.28;1.52;;;;;;;15.20;72.97;100593.44;5005367;28;20053;-53
2023/10/06 02:07:57;;;;;;;6.10;2.03;;;;;;;15.20;73.00;100594.28;4999955;28;20051;-49
2023/10/06 02:10:23;;;;;;;6.03;1.95;;;;;;;15.15;73.34;100590.88;5006665;28;20145;-50
2023/10/06 02:12:50;;;;;;;5.30;1.90;;;;;;;15.16;72.79;100583.03;5000707;28;20124;-51
2023/10/06 02:15:17;;;;;;;4.13;2.42;;;;;;;15.18;73.09;100579.53;5003830;28;20046;-51
2023/10/06 02:17:44;;;;;;;7.10;1.98;;;;;;;15.17;73.12;100578.69;4999895;28;20046;-49
2023/10/06 02:20:28;;;;;;;4.22;2.25;;;;;;;15.15;73.19;100578.72;4999382;28;20662;-52
2023/10/06 02:22:58;;;;;;;6.35;1.30;;;;;;;15.16;72.69;100567.38;4999569;28;20042;-49
2023/10/06 02:25:26;;;;;;;5.53;1.88;;;;;;;15.14;73.33;100576.97;5001537;28;20050;-49
2023/10/06 02:27:53;;;;;;;5.50;1.50;;;;;;;15.14;72.68;100574.34;5001665;28;20104;-49
2023/10/06 02:30:33;;;;;;;7.72;2.00;;;;;;;15.13;72.97;100572.63;5001604;28;20156;-48
2023/10/06 02:33:00;;;;;;;3.38;1.42;;;;;;;15.12;73.34;100591.78;4997484;28;20129;-50
2023/10/06 02:35:27;;;;;;;4.10;1.67;;;;;;;15.13;72.64;100583.06;5004623;28;20058;-52
2023/10/06 02:37:57;;;;;;;3.13;1.65;;;;;;;15.12;73.08;100585.69;5004055;28;20128;-53
2023/10/06 02:40:31;;;;;;;5.20;1.20;;;;;;;15.13;73.09;100579.63;5004162;28;20073;-50
2023/10/06 02:43:00;;;;;;;4.25;1.90;;;;;;;15.14;73.12;100574.34;5003031;28;20050;-50
2023/10/06 02:45:37;;;;;;;6.95;1.70;;;;;;;15.14;72.65;100587.41;5000760;28;20053;-49
2023/10/06 02:48:14;;;;;;;3.30;1.60;;;;;;;15.12;72.82;100581.34;5000524;28;20042;-50
2023/10/06 02:50:45;;;;;;;4.93;1.58;;;;;;;15.11;72.90;100581.38;5001793;28;20476;-52
2023/10/06 02:53:13;;;;;;;5.57;1.95;;;;;;;15.09;72.65;100581.38;4995261;28;20157;-48
2023/10/06 02:55:44;;;;;;;2.67;1.15;;;;;;;15.08;72.67;100563.13;4989575;28;20633;-49
2023/10/06 02:58:26;;;;;;;5.03;1.52;;;;;;;15.06;73.23;100559.72;4984825;28;20047;-49
2023/10/06 03:00:55;;;;;;;3.50;1.58;;;;;;;15.02;72.94;100564.09;4983453;28;20454;-50
2023/10/06 03:03:27;;;;;;;4.07;1.88;;;;;;;14.97;72.85;100561.56;4983994;28;20053;-47
2023/10/06 03:05:56;;;;;;;6.55;1.92;;;;;;;14.97;73.08;100561.56;4989011;28;20084;-52
2023/10/06 03:08:27;;;;;;;6.43;1.95;;;;;;;14.99;72.86;100561.50;4992044;28;20060;-48
2023/10/06 03:10:54;;;;;;;4.95;1.67;;;;;;;14.99;73.01;100569.34;4986000;28;20054;-50
2023/10/06 03:13:43;;;;;;;4.38;1.65;;;;;;;14.96;73.26;100569.41;4981426;28;20050;-48
2023/10/06 03:16:10;;;;;;;4.40;1.80;;;;;;;14.92;72.98;100552.06;4987282;28;20498;-51
2023/10/06 03:18:39;;;;;;;1.73;1.08;;;;;;;14.91;72.76;100553.78;4984057;28;20499;-48
2023/10/06 03:21:15;;;;;;;4.50;1.80;;;;;;;14.90;73.37;100565.97;4983004;28;20046;-50
2023/10/06 03:23:47;;;;;;;4.60;1.58;;;;;;;14.92;73.60;100559.88;4984976;28;20047;-51
2023/10/06 03:26:25;;;;;;;3.85;1.58;;;;;;;14.89;73.47;100559.03;4986440;28;20672;-48
2023/10/06 03:28:53;;;;;;;3.80;1.52;;;;;;;14.88;73.25;100572.09;4984963;28;20418;-50
2023/10/06 03:33:57;;;;;;;6.97;1.70;;;;;;;14.88;73.48;100565.13;5064009;27;20449;-49
2023/10/06 03:36:46;;;;;;;5.00;1.80;;;;;;;14.85;73.68;100567.78;5034910;28;20049;-46
2023/10/06 03:39:11;;;;;;;5.70;1.40;;;;;;;14.87;73.45;100568.63;5040557;28;20052;-46
2023/10/06 03:41:41;;;;;;;3.63;1.42;;;;;;;14.86;73.16;100569.50;5041530;28;20064;-47
2023/10/06 03:44:12;;;;;;;7.00;1.75;;;;;;;14.87;73.07;100568.63;5058166;28;20067;-46
2023/10/06 03:46:38;;;;;;;3.35;1.45;;;;;;;14.86;73.63;100558.22;5056510;28;20057;-50
2023/10/06 03:49:07;;;;;;;5.43;1.40;;;;;;;14.86;73.42;100564.28;5058367;28;20071;-48
2023/10/06 03:51:38;;;;;;;8.98;2.17;;;;;;;14.86;73.26;100573.88;5062543;28;20483;-47
2023/10/06 03:54:05;;;;;;;7.10;1.95;;;;;;;14.86;73.26;100574.72;5056978;28;20049;-50
2023/10/06 03:56:32;;;;;;;3.83;1.50;;;;;;;14.86;73.38;100569.50;5060927;28;20053;-51
2023/10/06 03:59:00;;;;;;;3.80;1.42;;;;;;;14.87;73.26;100570.38;5057094;28;20159;-51
2023/10/06 04:01:31;;;;;;;4.90;1.55;;;;;;;14.87;73.15;100563.41;5073486;28;20044;-50
2023/10/06 04:03:58;;;;;;;4.80;1.48;;;;;;;14.84;73.71;100565.19;5056538;28;20064;-50
2023/10/06 04:06:26;;;;;;;10.07;1.90;;;;;;;14.86;73.48;100564.28;5059266;28;20045;-48
2023/10/06 04:08:53;;;;;;;6.80;1.42;;;;;;;14.85;73.54;100561.69;5059384;28;20055;-48
2023/10/06 04:11:20;;;;;;;5.13;1.60;;;;;;;14.83;73.52;100569.53;5061921;28;20048;-50
2023/10/06 04:13:47;;;;;;;7.65;1.70;;;;;;;14.83;73.46;100569.53;5056530;28;20508;-49
2023/10/06 04:16:14;;;;;;;7.38;1.50;;;;;;;14.82;74.09;100562.59;5054489;28;20049;-50
2023/10/06 04:18:41;;;;;;;6.32;1.45;;;;;;;14.81;73.62;100571.31;5054386;28;20091;-54
2023/10/06 04:21:11;;;;;;;7.65;1.75;;;;;;;14.81;73.48;100560.00;5052661;28;20110;-50
2023/10/06 04:23:41;;;;;;;4.93;1.80;;;;;;;14.81;73.62;100554.78;5055699;28;20068;-51
2023/10/06 04:26:09;;;;;;;6.70;1.50;;;;;;;14.80;73.81;100558.28;5052063;28;20053;-50
2023/10/06 04:28:37;;;;;;;7.72;1.60;;;;;;;14.78;73.60;100547.88;5059720;28;20646;-50
2023/10/06 04:31:05;;;;;;;5.57;1.52;;;;;;;14.77;73.82;100556.56;5050804;28;20045;-52
2023/10/06 04:33:33;;;;;;;4.30;2.00;;;;;;;14.75;74.10;100556.56;5057328;28;20051;-54
2023/10/06 04:36:01;;;;;;;4.32;1.40;;;;;;;14.74;73.80;100561.78;5053661;28;20378;-53
2023/10/06 04:38:29;;;;;;;2.80;1.13;;;;;;;14.74;73.50;100554.84;5057540;28;20043;-52
2023/10/06 04:40:56;;;;;;;3.47;1.40;;;;;;;14.71;73.94;100543.56;5061309;28;20041;-51
2023/10/06 04:43:23;;;;;;;8.90;2.05;;;;;;;14.69;73.55;100550.56;5055235;28;20042;-49
2023/10/06 04:45:50;;;;;;;2.97;1.33;;;;;;;14.66;73.83;100551.47;5040785;28;20059;-48
2023/10/06 04:48:18;;;;;;;6.13;2.08;;;;;;;14.68;74.06;100564.47;5039842;28;20055;-49
2023/10/06 04:50:50;;;;;;;5.70;1.92;;;;;;;14.66;73.74;100561.91;5035350;28;20079;-50
2023/10/06 04:53:17;;;;;;;5.55;1.58;;;;;;;14.64;73.30;100564.53;5043462;28;20037;-49
2023/10/06 04:55:44;;;;;;;4.90;1.75;;;;;;;14.63;73.85;100561.94;5038315;28;20571;-48
2023/10/06 04:58:13;;;;;;;4.07;2.03;;;;;;;14.63;73.93;100557.56;5045922;28;20049;-51
2023/10/06 05:00:41;;;;;;;5.40;2.30;;;;;;;14.62;73.69;100561.06;5041905;28;20543;-48
2023/10/06 05:03:10;;;;;;;3.92;1.63;;;;;;;14.62;73.76;100552.34;5046685;28;20048;-47
2023/10/06 05:05:38;;;;;;;7.20;1.58;;;;;;;14.60;73.84;100547.19;5039829;28;20494;-51
2023/10/06 05:08:09;;;;;;;6.28;1.60;;;;;;;14.59;74.27;100553.25;5047298;28;20666;-52
2023/10/06 05:10:37;;;;;;;4.75;1.70;;;;;;;14.57;74.11;100548.94;5040417;28;20041;-48
2023/10/06 05:13:06;;;;;;;3.22;1.55;;;;;;;14.58;73.81;100548.94;5042125;28;20124;-49
2023/10/06 05:15:34;;;;;;;8.02;1.85;;;;;;;14.57;73.90;100542.00;5037368;28;20076;-49
2023/10/06 05:18:03;;;;;;;4.55;1.48;;;;;;;14.51;74.32;100537.72;5041009;28;20042;-49
2023/10/06 05:20:32;;;;;;;5.50;2.30;;;;;;;14.54;73.81;100544.63;5044648;28;20060;-46
2023/10/06 05:23:07;;;;;;;5.25;1.83;;;;;;;14.53;74.12;100546.38;5043093;28;20398;-48
2023/10/06 05:25:34;;;;;;;6.35;1.67;;;;;;;14.52;74.13;100549.00;5034526;28;20048;-48
2023/10/06 05:28:01;;;;;;;7.50;1.60;;;;;;;14.49;74.44;100538.63;5045330;28;20132;-47
2023/10/06 05:30:28;;;;;;;5.20;2.03;;;;;;;14.49;74.10;100533.41;5038220;28;20141;-50
2023/10/06 05:33:00;;;;;;;7.05;2.08;;;;;;;14.48;74.26;100542.09;5037942;28;20115;-47
2023/10/06 05:35:29;;;;;;;7.50;2.45;;;;;;;14.44;74.58;100543.00;5046829;28;20465;-48
2023/10/06 05:37:57;;;;;;;4.88;2.15;;;;;;;14.46;74.05;100538.66;5043202;28;20137;-50
2023/10/06 05:40:25;;;;;;;2.90;1.38;;;;;;;14.44;74.50;100528.25;5041747;28;20049;-52
2023/10/06 05:42:52;;;;;;;4.53;1.95;;;;;;;14.43;73.95;100533.47;5038145;28;20037;-47
2023/10/06 05:45:19;;;;;;;9.07;2.00;;;;;;;14.44;74.52;100536.06;5042692;28;20048;-47
2023/10/06 05:47:50;;;;;;;8.77;2.35;;;;;;;14.43;74.38;100525.66;5042549;28;20501;-50
2023/10/06 05:50:26;;;;;;;6.25;2.25;;;;;;;14.43;74.11;100528.25;5039217;28;20049;-48
2023/10/06 05:53:01;;;;;;;7.78;1.80;;;;;;;14.38;74.41;100537.00;5043284;28;20045;-46
2023/10/06 05:55:30;;;;;;;6.47;2.08;;;;;;;14.38;74.48;100542.19;5038765;28;20051;-50
2023/10/06 05:58:00;;;;;;;4.82;1.73;;;;;;;14.38;74.06;100542.19;5039872;28;20056;-49
2023/10/06 06:00:30;;;;;;;7.65;3.53;;;;;;;14.37;74.24;100545.69;5041555;28;20460;-52
2023/10/06 06:02:59;;;;;;;6.05;1.98;;;;;;;14.35;74.60;100542.22;5040590;28;20676;-48
2023/10/06 06:05:29;;;;;;;13.00;4.82;;;;;;;14.36;74.80;100543.94;5019535;28;20545;-46
2023/10/06 06:07:59;;;;;;;7.50;2.65;;;;;;;14.36;74.35;100543.94;5064559;28;20048;-49
2023/10/06 06:10:29;;;;;;;9.45;4.47;;;;;;;14.37;74.26;100537.00;5059429;28;20645;-49
2023/10/06 06:12:56;;;;;;;7.68;4.05;;;;;;;14.39;74.61;100543.06;5062317;28;20089;-48
2023/10/06 06:15:25;;;;;;;11.45;4.18;;;;;;;14.37;74.65;100535.28;5065602;28;20044;-51
2023/10/06 06:17:53;;;;;;;6.82;1.60;;;;;;;14.39;74.32;100548.28;5061830;28;20059;-48
2023/10/06 06:20:22;;;;;;;7.32;1.98;;;;;;;14.39;75.01;100551.75;5064854;28;20692;-47
2023/10/06 06:22:53;;;;;;;8.88;2.40;;;;;;;14.38;74.85;100551.75;5063262;28;20049;-49
2023/10/06 06:25:21;;;;;;;10.23;2.78;;;;;;;14.37;74.88;100552.63;5063512;28;20482;-50
2023/10/06 06:27:50;;;;;;;3.95;1.75;;;;;;;14.34;74.70;100543.13;5062656;28;20153;-50
2023/10/06 06:30:18;;;;;;;6.90;2.28;;;;;;;14.34;75.00;100550.06;5066087;28;20076;-47
2023/10/06 06:32:48;;;;;;;6.97;1.77;;;;;;;14.33;74.97;100549.22;5066038;28;20487;-47
2023/10/06 06:35:16;;;;;;;;;;;;;;;14.21;75.35;100551.91;5066167;28;20131;-50
2023/10/06 06:37:42;;;;;;;13.07;3.72;;;;;;;14.30;75.13;100554.44;5065242;28;19925;-51
2023/10/06 06:40:12;;;;;;;5.95;2.25;;;;;;;14.32;75.12;100560.50;5066425;28;20508;-48
2023/10/06 06:42:40;;;;;;;10.45;3.42;;;;;;;14.33;75.21;100570.06;5058564;28;20496;-50
2023/10/06 06:45:07;;;;;;;8.50;3.03;;;;;;;14.35;74.91;100575.22;5053941;28;20127;-53
2023/10/06 06:47:36;;;;;;;8.30;3.00;;;;;;;14.37;74.82;100576.97;5050463;28;20064;-48
2023/10/06 06:50:03;;;;;;;8.52;1.50;;;;;;;14.38;74.93;100580.41;5049824;28;20048;-48
2023/10/06 06:52:30;;;;;;;10.23;3.40;;;;;;;14.42;75.00;100576.06;5047512;28;20044;-50
2023/10/06 06:54:56;;;;;;;8.13;2.38;;;;;;;14.44;75.19;100582.09;5049429;28;20056;-50
2023/10/06 06:57:23;;;;;;;10.27;3.17;;;;;;;14.49;75.04;100595.97;5054424;28;20054;-51
2023/10/06 06:59:49;;;;;;;9.40;2.58;;;;;;;14.52;75.06;100593.31;5051648;28;20080;-49
2023/10/06 07:02:16;;;;;;;4.28;2.90;;;;;;;14.55;74.59;100585.47;5056464;28;20052;-49
2023/10/06 07:04:44;;;;;;;6.70;1.63;;;;;;;14.58;74.93;100580.22;5052971;28;20147;-49
2023/10/06 07:07:11;;;;;;;4.82;1.92;;;;;;;14.60;75.16;100582.81;5055069;28;20057;-49
2023/10/06 07:09:38;;;;;;;8.00;2.17;;;;;;;14.62;75.21;100591.47;5052508;28;20044;-51
2023/10/06 07:12:05;;;;;;;3.25;1.42;;;;;;;14.65;74.92;100596.66;5054508;28;20049;-48
2023/10/06 07:14:34;;;;;;;3.65;1.77;;;;;;;14.67;74.78;100604.44;5050250;28;20290;-50
2023/10/06 07:17:01;;;;;;;7.85;2.75;;;;;;;14.70;74.71;100594.00;5056577;28;20052;-46
2023/10/06 07:19:29;;;;;;;3.47;1.73;;;;;;;14.72;74.81;100597.44;5053211;28;20120;-51
2023/10/06 07:21:55;;;;;;;6.32;2.67;;;;;;;14.73;74.69;100597.41;5054469;28;20052;-49
2023/10/06 07:24:22;;;;;;;6.47;1.63;;;;;;;14.71;75.39;100606.13;5055596;28;20041;-48
2023/10/06 07:26:50;;;;;;;3.28;1.95;;;;;;;14.71;75.07;100606.13;5056236;28;20048;-50
2023/10/06 07:29:16;;;;;;;4.80;2.30;;;;;;;14.79;74.57;100604.34;5057290;28;20056;-51
2023/10/06 07:31:43;;;;;;;4.68;1.70;;;;;;;14.81;74.89;100605.19;5052348;28;20080;-49
2023/10/06 07:34:11;;;;;;;4.50;2.15;;;;;;;14.85;75.01;100614.72;5059395;28;20049;-50
2023/10/06 07:36:38;;;;;;;6.07;1.52;;;;;;;14.86;75.24;100621.66;5052507;28;20049;-50
2023/10/06 07:39:08;;;;;;;3.25;1.88;;;;;;;14.90;75.32;100614.66;5055165;28;20051;-49
2023/10/06 07:41:36;;;;;;;4.65;2.15;;;;;;;14.94;74.63;100623.31;5056946;28;20061;-51
2023/10/06 07:44:05;;;;;;;4.85;2.47;;;;;;;14.97;74.95;100618.06;5062948;28;20066;-48
2023/10/06 07:46:32;;;;;;;9.40;2.70;;;;;;;14.99;74.99;100627.59;5062751;28;20048;-49
2023/10/06 07:48:58;;;;;;;11.48;3.97;;;;;;;15.04;74.84;100619.72;5058586;28;20055;-50
2023/10/06 07:51:28;;;;;;;6.38;2.13;;;;;;;15.09;75.05;100635.28;5050518;28;20511;-49
2023/10/06 07:53:55;;;;;;;7.55;2.90;;;;;;;15.11;74.73;100620.50;5068218;28;20114;-49
2023/10/06 07:56:22;;;;;;;6.00;2.22;;;;;;;15.09;74.71;100619.63;5062008;28;20079;-46
2023/10/06 07:58:50;;;;;;;16.10;4.45;;;;;;;15.19;74.62;100623.03;5050856;28;20072;-46
2023/10/06 08:01:19;;;;;;;17.88;4.53;;;;;;;15.24;75.08;100631.66;5055416;28;20067;-50
2023/10/06 08:03:46;;;;;;;10.02;3.30;;;;;;;15.32;74.55;100621.09;5061796;28;20055;-49
2023/10/06 08:06:13;;;;;;;6.32;2.83;;;;;;;15.46;74.65;100636.56;5061740;28;20144;-48
2023/10/06 08:08:41;;;;;;;7.82;3.20;;;;;;;15.67;74.70;100631.06;5067765;28;20047;-48
2023/10/06 08:11:09;;;;;;;8.88;3.22;;;;;;;15.84;73.82;100632.53;5062834;28;20074;-48
2023/10/06 08:13:37;;;;;;;10.77;4.25;;;;;;;15.91;73.81;100639.41;5059747;28;20045;-47
2023/10/06 08:16:06;;;;;;;9.38;3.95;;;;;;;15.91;73.16;100643.78;5056183;28;20044;-50
2023/10/06 08:18:34;;;;;;;11.75;4.00;;;;;;;15.89;73.20;100642.94;5059663;28;20589;-49
2023/10/06 08:21:01;;;;;;;7.55;3.65;;;;;;;15.88;73.18;100655.13;5064985;28;20390;-46
2023/10/06 08:23:31;;;;;;;7.70;2.70;;;;;;;15.84;73.42;100653.44;5060624;28;20048;-48
2023/10/06 08:25:58;;;;;;;4.50;1.80;;;;;;;15.83;73.51;100656.94;5058386;28;20094;-47
2023/10/06 08:28:31;;;;;;;5.30;2.05;;;;;;;15.85;73.63;100655.19;5064262;28;20067;-50
2023/10/06 08:31:02;;;;;;;5.47;1.83;;;;;;;15.88;72.82;100660.34;5064619;28;20064;-51
2023/10/06 08:33:29;;;;;;;5.13;2.60;;;;;;;15.97;73.83;100659.38;5064979;28;20132;-49
2023/10/06 08:35:58;;;;;;;5.05;1.60;;;;;;;16.09;73.54;100658.34;5065421;28;20139;-50
2023/10/06 08:38:25;;;;;;;4.03;2.22;;;;;;;16.26;73.53;100660.66;5056867;28;20488;-49
2023/10/06 08:40:58;;;;;;;5.68;2.15;;;;;;;16.44;72.95;100654.25;5058871;28;20044;-51
2023/10/06 08:43:27;;;;;;;3.63;1.60;;;;;;;16.58;72.75;100640.94;5064839;28;20403;-47
2023/10/06 08:45:59;;;;;;;7.50;1.92;;;;;;;16.77;72.43;100650.19;5062027;28;20080;-47
2023/10/06 08:48:31;;;;;;;5.50;1.70;;;;;;;16.87;72.49;100645.63;5058856;28;20063;-45
2023/10/06 08:51:03;;;;;;;4.90;1.77;;;;;;;16.94;72.35;100626.31;5062046;28;20041;-49
2023/10/06 08:53:31;;;;;;;4.60;1.95;;;;;;;17.18;71.55;100639.81;5058662;28;20040;-48
2023/10/06 08:55:58;;;;;;;5.20;2.63;;;;;;;17.31;71.61;100630.81;5063243;28;20048;-48
2023/10/06 08:58:26;;;;;;;4.22;1.85;;;;;;;17.32;70.81;100637.78;5062597;28;20094;-47
2023/10/06 09:00:55;;;;;;;15.27;3.38;;;;;;;17.55;71.38;100630.31;5052651;28;20674;-47
2023/10/06 09:03:22;;;;;;;7.28;2.35;;;;;;;17.87;70.63;100628.72;5058341;28;20136;-52
2023/10/06 09:05:53;;;;;;;5.45;1.73;;;;;;;18.07;69.84;100635.22;5058657;28;20052;-48
2023/10/06 09:08:21;;;;;;;12.45;3.03;;;;;;;18.18;69.95;100633.22;5062750;28;20072;-49
2023/10/06 09:10:49;;;;;;;8.27;2.50;;;;;;;18.40;69.05;100637.91;5056203;28;20114;-52
2023/10/06 09:13:19;;;;;;;6.28;2.65;;;;;;;18.98;68.86;100639.84;5062272;28;20135;-51
2023/10/06 09:16:04;;;;;;;7.00;2.50;;;;;;;19.93;68.21;100645.81;5063261;28;20056;-44
2023/10/06 09:18:34;;;;;;;8.77;2.78;;;;;;;20.84;66.30;100648.94;5060550;28;20040;-51
2023/10/06 09:21:15;;;;;;;6.55;3.03;;;;;;;21.66;64.00;100652.91;5061972;28;20075;-50
2023/10/06 09:23:43;;;;;;;6.20;2.00;;;;;;;22.21;62.76;100657.75;5063744;28;20106;-47
2023/10/06 09:26:12;;;;;;;5.18;1.75;;;;;;;22.59;61.65;100659.69;5066061;28;20054;-46
2023/10/06 09:28:55;;;;;;;5.95;2.80;;;;;;;23.28;61.94;100658.44;5055105;28;20216;-51
2023/10/06 09:31:51;;;;;;;10.18;2.58;;;;;;;23.86;58.87;100654.81;5059255;28;20044;-54
2023/10/06 09:34:27;;;;;;;7.85;3.45;;;;;;;24.32;58.68;100655.25;5064292;28;20094;-50
2023/10/06 09:36:54;;;;;;;11.57;3.50;;;;;;;24.66;57.53;100672.06;5062049;28;20044;-51
2023/10/06 09:39:32;;;;;;;4.82;1.63;;;;;;;24.97;56.28;100669.59;5062310;28;20918;-49
2023/10/06 09:42:01;;;;;;;10.30;3.25;;;;;;;25.30;56.54;100668.72;5060899;28;20052;-50
2023/10/06 09:44:30;;;;;;;8.18;3.95;;;;;;;25.54;55.72;100686.84;5061730;28;20059;-53
2023/10/06 09:47:01;;;;;;;5.75;2.55;;;;;;;25.53;54.97;100669.22;5063695;28;20045;-49
2023/10/06 09:49:31;;;;;;;4.65;2.40;;;;;;;25.60;54.81;100680.38;5067287;28;20048;-50
2023/10/06 09:52:01;;;;;;;4.60;2.28;;;;;;;25.73;54.32;100676.06;5052999;28;20048;-48
2023/10/06 09:54:30;;;;;;;5.50;2.13;;;;;;;25.86;53.88;100660.31;5060847;28;20055;-49
2023/10/06 09:56:59;;;;;;;4.40;1.80;;;;;;;26.12;54.06;100659.72;5054366;28;20517;-48
2023/10/06 09:59:26;;;;;;;;;;;;;;;26.34;52.90;100658.50;5056646;28;20135;-48
2023/10/06 10:01:56;;;;;;;7.25;2.55;;;;;;;26.33;53.40;100652.31;5070409;28;19912;-49
2023/10/06 10:04:29;;;;;;;6.47;2.30;;;;;;;26.43;53.44;100653.50;5049459;28;20056;-51
2023/10/06 10:06:56;;;;;;;7.15;2.53;;;;;;;26.54;53.00;100660.78;5062648;28;20508;-48
2023/10/06 10:09:24;;;;;;;5.32;2.50;;;;;;;26.61;52.74;100648.00;5057478;28;20051;-49
2023/10/06 10:17:53;;;;;;;4.07;2.97;;;;;;;26.88;52.10;100655.22;5040755;28;20405;-46
2023/10/06 10:20:25;;;;;;;9.07;4.45;;;;;;;27.08;51.60;100658.44;5008992;28;20056;-48
2023/10/06 10:22:56;;;;;;;4.10;3.28;;;;;;;27.12;51.13;100659.97;5012543;28;20045;-50
2023/10/06 10:25:24;;;;;;;5.75;3.03;;;;;;;27.07;51.60;100652.28;5008954;28;20052;-52
2023/10/06 10:28:17;;;;;;;6.38;3.80;;;;;;;27.10;50.90;100650.38;5003412;28;20050;-47
2023/10/06 10:33:29;;;;;;;6.53;2.83;;;;;;;26.91;50.89;100651.50;5041844;27;20414;-47
2023/10/06 10:39:14;;;;;;;6.38;3.13;;;;;;;26.71;50.11;100655.41;5060064;27;20820;-46
2023/10/06 10:41:40;;;;;;;6.35;2.90;;;;;;;26.78;50.18;100659.41;5022954;28;20165;-48
2023/10/06 10:44:11;;;;;;;6.10;3.60;;;;;;;26.58;50.13;100669.44;5025417;28;20038;-48
2023/10/06 10:46:53;;;;;;;4.80;3.60;;;;;;;26.47;50.26;100674.56;5020917;28;20140;-50
2023/10/06 10:49:22;;;;;;;6.32;3.83;;;;;;;26.52;51.50;100668.03;5011950;28;20064;-50
2023/10/06 10:52:07;;;;;;;4.25;2.90;;;;;;;26.62;50.47;100668.31;5020833;28;20108;-50
2023/10/06 10:54:37;;;;;;;4.88;3.35;;;;;;;26.69;51.03;100659.00;5037915;28;20045;-49
2023/10/06 10:57:09;;;;;;;4.70;3.17;;;;;;;26.62;51.14;100663.00;5018433;28;20054;-51
2023/10/06 11:02:59;;;;;;;4.05;1.13;;;;;;;26.46;50.89;100646.25;5047924;28;20395;-49
2023/10/06 11:05:27;;;;;;;4.70;2.15;;;;;;;26.36;51.02;100649.50;4994114;28;20133;-50
2023/10/06 11:07:56;;;;;;;2.88;1.80;;;;;;;26.29;51.35;100645.50;5000193;28;20057;-49
2023/10/06 11:10:23;;;;;;;4.88;2.20;;;;;;;26.26;51.04;100650.94;4999591;28;20047;-48
2023/10/06 11:12:50;;;;;;;2.83;1.42;;;;;;;26.24;51.50;100658.16;5001765;28;20073;-51
2023/10/06 11:15:30;;;;;;;4.05;1.38;;;;;;;26.11;51.23;100648.25;4999630;28;20139;-48
2023/10/06 11:17:58;;;;;;;3.20;1.33;;;;;;;26.02;51.83;100632.88;4996972;28;20061;-52
2023/10/06 11:20:31;;;;;;;3.42;1.45;;;;;;;25.94;51.81;100646.59;5002208;28;20046;-51
2023/10/06 11:22:59;;;;;;;4.07;2.13;;;;;;;25.85;51.66;100640.03;4998483;28;20046;-50
2023/10/06 11:25:28;;;;;;;2.80;1.40;;;;;;;25.76;51.98;100627.28;4996760;28;20057;-48
2023/10/06 11:28:03;;;;;;;5.00;1.50;;;;;;;25.69;51.93;100636.56;4993497;28;20672;-48
2023/10/06 11:30:32;;;;;;;6.82;1.45;;;;;;;25.57;52.23;100630.97;4991407;28;20136;-51
2023/10/06 11:33:02;;;;;;;;;;;;;;;25.38;52.38;100634.66;4992398;28;20542;-49
2023/10/06 11:35:30;;;;;;;4.68;1.85;;;;;;;25.31;52.72;100641.25;4994980;28;20279;-48
2023/10/06 11:37:57;;;;;;;5.43;1.30;;;;;;;25.27;52.85;100658.28;4995717;28;20065;-51
2023/10/06 11:40:24;;;;;;;7.28;2.13;;;;;;;25.27;52.45;100652.97;4992469;28;20561;-50
2023/10/06 11:42:52;;;;;;;3.50;1.05;;;;;;;25.18;52.67;100656.09;5001006;28;20415;-50
2023/10/06 11:45:24;;;;;;;5.60;1.35;;;;;;;25.18;53.09;100650.81;4996591;28;20480;-47
2023/10/06 11:47:51;;;;;;;3.75;1.40;;;;;;;25.19;53.44;100648.06;4999158;28;20057;-48
2023/10/06 11:50:23;;;;;;;3.85;1.10;;;;;;;25.27;53.74;100647.66;4998861;28;20105;-46
2023/10/06 11:52:51;;;;;;;5.07;1.65;;;;;;;25.33;53.54;100657.06;5005016;28;20065;-48
2023/10/06 11:55:31;;;;;;;4.10;1.23;;;;;;;25.31;53.41;100651.84;4998797;28;20049;-52
2023/10/06 11:58:00;;;;;;;3.28;1.63;;;;;;;25.36;53.25;100652.44;4994933;28;20070;-49
2023/10/06 12:00:43;;;;;;;2.92;1.17;;;;;;;25.35;52.36;100650.75;4989255;28;20128;-51